Terminal Aerodrome Forecast
Issued by NWS Goodland, KS

Home | Current Version | Previous Version | Text Only | Print | Product List | Glossary On
Versions: 1 2 3 4 5 6 7 8 9 10 11 12 13 14 15 16 17 18 19
000
FTUS43 KGLD 260520
TAFGLD
TAF
KGLD 260520Z 2606/2706 13012KT P6SM BKN150
     FM260800 15008KT 4SM BR BKN150
      TEMPO 2608/2609 OVC008
     FM260900 15008KT 1SM BR OVC003
     FM261000 11007KT 1/2SM FG OVC003
     FM261500 10008KT 3/4SM BR BKN008
     FM261700 09009KT P6SM BKN035=

USA.gov is the U.S. government's official web portal to all federal, state and local government web resources and services.